Time;durP1;ratioP1;P1;durP2;ratioP2;P2;SDS_P1;SDS_P2;PMS_P1;PMS_P2;Temp;Humidity;BMP_temperature;BMP_pressure;BME280_temperature;BME280_humidity;BME280_pressure;Samples;Min_cycle;Max_cycle;Signal;HPM_P1;HPM_P2
2022/03/10 00:00:10;;;;;;;26.43;12.47;;;;;;;;;;5027596;28;20209;-74
2022/03/10 00:02:35;;;;;;;22.20;12.87;;;;;;;;;;5033331;28;20202;-74
2022/03/10 00:05:01;;;;;;;23.27;11.83;;;;;;;;;;5032366;28;20290;-74
2022/03/10 00:07:26;;;;;;;21.53;13.23;;;;;;;;;;5032598;28;20174;-74
2022/03/10 00:09:51;;;;;;;23.83;12.03;;;;;;;;;;5051864;28;20315;-75
2022/03/10 00:12:16;;;;;;;20.33;13.07;;;;;;;;;;5049978;28;20166;-74
2022/03/10 00:14:41;;;;;;;25.60;12.57;;;;;;;;;;5034013;28;20178;-74
2022/03/10 00:17:07;;;;;;;25.07;13.67;;;;;;;;;;5033335;28;20265;-74
2022/03/10 00:19:32;;;;;;;25.40;12.73;;;;;;;;;;5031696;28;20192;-74
2022/03/10 00:21:58;;;;;;;18.87;12.03;;;;;;;;;;5045219;28;20209;-74
2022/03/10 00:24:23;;;;;;;20.50;12.10;;;;;;;;;;5049743;28;20213;-74
2022/03/10 00:26:48;;;;;;;26.10;13.80;;;;;;;;;;5035030;28;20198;-74
2022/03/10 00:29:14;;;;;;;21.53;12.73;;;;;;;;;;5031022;28;20185;-74
2022/03/10 00:31:40;;;;;;;24.20;12.50;;;;;;;;;;5043607;28;20523;-74
2022/03/10 00:34:05;;;;;;;24.17;12.87;;;;;;;;;;5042147;28;20175;-74
2022/03/10 00:36:30;;;;;;;20.23;12.13;;;;;;;;;;5048607;28;20240;-74
2022/03/10 00:38:55;;;;;;;26.23;13.73;;;;;;;;;;5030249;28;20178;-74
2022/03/10 00:41:21;;;;;;;21.17;12.17;;;;;;;;;;5031217;28;20238;-74
2022/03/10 00:43:46;;;;;;;23.63;12.03;;;;;;;;;;5041348;28;20282;-74
2022/03/10 00:46:12;;;;;;;22.90;12.80;;;;;;;;;;5032678;28;20182;-74
2022/03/10 00:48:37;;;;;;;22.67;12.30;;;;;;;;;;5047620;28;20174;-74
2022/03/10 00:51:03;;;;;;;19.77;12.30;;;;;;;;;;5049087;28;20173;-74
2022/03/10 00:53:28;;;;;;;24.37;12.70;;;;;;;;;;5030627;28;20292;-74
2022/03/10 00:55:53;;;;;;;19.73;12.13;;;;;;;;;;5031788;28;20190;-74
2022/03/10 00:58:18;;;;;;;20.70;12.60;;;;;;;;;;5049582;28;20190;-74
2022/03/10 01:00:43;;;;;;;19.83;12.60;;;;;;;;;;5048319;28;20242;-74
2022/03/10 01:03:09;;;;;;;17.67;10.30;;;;;;;;;;5034125;28;20240;-74
2022/03/10 01:05:34;;;;;;;18.93;10.67;;;;;;;;;;5033466;28;20225;-74
2022/03/10 01:07:59;;;;;;;18.17;10.57;;;;;;;;;;5048577;28;20189;-74
2022/03/10 01:10:24;;;;;;;19.00;10.20;;;;;;;;;;5026960;28;20235;-74
2022/03/10 01:12:50;;;;;;;20.60;11.00;;;;;;;;;;5031916;28;20182;-74
2022/03/10 01:15:17;;;;;;;16.40;9.53;;;;;;;;;;5030547;28;20185;-74
2022/03/10 01:17:43;;;;;;;17.53;11.03;;;;;;;;;;5035679;28;20204;-74
2022/03/10 01:20:09;;;;;;;16.50;10.10;;;;;;;;;;5055478;28;20182;-74
2022/03/10 01:22:35;;;;;;;16.70;10.10;;;;;;;;;;5032180;28;20211;-75
2022/03/10 01:25:00;;;;;;;17.90;10.23;;;;;;;;;;5038468;28;20182;-74
2022/03/10 01:27:25;;;;;;;18.93;11.13;;;;;;;;;;5030941;28;20182;-74
2022/03/10 01:29:50;;;;;;;15.60;9.93;;;;;;;;;;5031522;28;20235;-74
2022/03/10 01:32:15;;;;;;;23.57;12.17;;;;;;;;;;5051208;28;20186;-74
2022/03/10 01:34:41;;;;;;;21.33;12.07;;;;;;;;;;5049926;28;20231;-74
2022/03/10 01:37:06;;;;;;;20.53;11.10;;;;;;;;;;5036054;28;20178;-74
2022/03/10 01:39:32;;;;;;;20.70;11.47;;;;;;;;;;5046942;28;20379;-74
2022/03/10 01:41:58;;;;;;;21.43;11.57;;;;;;;;;;5049189;28;20720;-74
2022/03/10 01:44:24;;;;;;;21.33;11.00;;;;;;;;;;5033131;28;20483;-74
2022/03/10 01:46:49;;;;;;;19.67;12.07;;;;;;;;;;5037049;28;20184;-74
2022/03/10 01:49:15;;;;;;;21.60;12.07;;;;;;;;;;5048517;28;20185;-74
2022/03/10 01:51:40;;;;;;;22.17;12.07;;;;;;;;;;5054556;28;20265;-74
2022/03/10 01:54:06;;;;;;;22.90;12.77;;;;;;;;;;5048079;28;20252;-74
2022/03/10 01:56:32;;;;;;;21.27;12.57;;;;;;;;;;5031669;28;20181;-74
2022/03/10 01:58:58;;;;;;;23.23;13.13;;;;;;;;;;5030603;28;20626;-74
2022/03/10 02:01:24;;;;;;;24.47;11.47;;;;;;;;;;5029845;28;20236;-74
2022/03/10 02:03:50;;;;;;;20.70;11.47;;;;;;;;;;5051233;28;20220;-74
2022/03/10 02:06:15;;;;;;;24.43;13.33;;;;;;;;;;5052876;28;20240;-75
2022/03/10 02:11:25;;;;;;;23.03;11.60;;;;;;;;;;5047440;28;20221;-74
2022/03/10 02:13:50;;;;;;;19.60;11.10;;;;;;;;;;5049048;28;20186;-74
2022/03/10 02:19:00;;;;;;;21.07;12.00;;;;;;;;;;5046355;28;20197;-74
2022/03/10 02:21:26;;;;;;;17.80;10.57;;;;;;;;;;5032211;28;20174;-74
2022/03/10 02:23:52;;;;;;;15.27;10.30;;;;;;;;;;5030063;28;20217;-74
2022/03/10 02:26:17;;;;;;;14.90;10.17;;;;;;;;;;5031704;28;20182;-74
2022/03/10 02:28:43;;;;;;;17.70;11.17;;;;;;;;;;5047322;28;20260;-74
2022/03/10 02:31:09;;;;;;;17.27;10.27;;;;;;;;;;5039204;28;20178;-74
2022/03/10 02:33:34;;;;;;;16.63;9.63;;;;;;;;;;5036393;28;20204;-74
2022/03/10 02:35:59;;;;;;;16.60;9.40;;;;;;;;;;5037661;28;20202;-74
2022/03/10 02:38:24;;;;;;;15.03;9.27;;;;;;;;;;5034033;28;20202;-75
2022/03/10 02:40:50;;;;;;;15.97;9.37;;;;;;;;;;5053069;28;20192;-74
2022/03/10 02:43:16;;;;;;;16.53;8.60;;;;;;;;;;5051214;28;20202;-74
2022/03/10 02:45:41;;;;;;;13.83;7.93;;;;;;;;;;5035117;28;20186;-74
2022/03/10 02:48:06;;;;;;;14.70;8.13;;;;;;;;;;5034344;28;20185;-74
2022/03/10 02:50:32;;;;;;;12.80;8.17;;;;;;;;;;5051948;28;20209;-74
2022/03/10 02:52:57;;;;;;;17.00;10.33;;;;;;;;;;5033659;28;20186;-74
2022/03/10 02:55:22;;;;;;;14.87;9.10;;;;;;;;;;5033627;28;20193;-74
2022/03/10 02:57:48;;;;;;;17.50;10.63;;;;;;;;;;5033650;28;20174;-74
2022/03/10 03:00:18;;;;;;;19.03;11.03;;;;;;;;;;5032951;28;20249;-74
2022/03/10 03:02:43;;;;;;;16.67;9.97;;;;;;;;;;5052285;28;20202;-74
2022/03/10 03:05:14;;;;;;;22.30;11.77;;;;;;;;;;5035823;28;20228;-74
2022/03/10 03:07:39;;;;;;;19.83;11.20;;;;;;;;;;5034110;28;20280;-74
2022/03/10 03:10:05;;;;;;;20.27;10.50;;;;;;;;;;5038695;28;20324;-74
2022/03/10 03:12:30;;;;;;;17.33;10.23;;;;;;;;;;5046826;28;20174;-74
2022/03/10 03:14:55;;;;;;;25.13;13.83;;;;;;;;;;5036300;28;20183;-74
2022/03/10 03:17:21;;;;;;;20.00;10.15;;;;;;;;;;5029119;28;20178;-74
2022/03/10 03:19:46;;;;;;;17.63;10.57;;;;;;;;;;5040056;28;20421;-74
2022/03/10 03:22:11;;;;;;;18.93;10.80;;;;;;;;;;5046754;28;20257;-74
2022/03/10 03:24:36;;;;;;;15.83;10.57;;;;;;;;;;5050764;28;20193;-74
2022/03/10 03:27:02;;;;;;;20.13;11.30;;;;;;;;;;5033980;28;20213;-74
2022/03/10 03:29:27;;;;;;;19.40;10.23;;;;;;;;;;5056803;28;20174;-74
2022/03/10 03:31:52;;;;;;;20.80;10.77;;;;;;;;;;5034115;28;20223;-74
2022/03/10 03:34:17;;;;;;;15.90;9.77;;;;;;;;;;5031971;28;20180;-74
2022/03/10 03:36:43;;;;;;;19.77;10.53;;;;;;;;;;5033454;28;20221;-74
2022/03/10 03:39:09;;;;;;;21.47;10.20;;;;;;;;;;5049910;28;20181;-74
2022/03/10 03:41:35;;;;;;;20.23;10.60;;;;;;;;;;5033248;28;20194;-74
2022/03/10 03:44:00;;;;;;;19.77;10.13;;;;;;;;;;5035848;28;20217;-74
2022/03/10 03:46:25;;;;;;;18.23;9.63;;;;;;;;;;5033641;28;20170;-74
2022/03/10 03:48:51;;;;;;;17.80;9.73;;;;;;;;;;5035621;28;20296;-74
2022/03/10 03:51:16;;;;;;;17.67;9.67;;;;;;;;;;5033562;28;20178;-74
2022/03/10 03:53:41;;;;;;;16.90;9.90;;;;;;;;;;5052042;28;20256;-74
2022/03/10 03:56:06;;;;;;;17.70;10.77;;;;;;;;;;5035710;28;20205;-74
2022/03/10 03:58:31;;;;;;;18.63;10.80;;;;;;;;;;5051307;28;20204;-74
2022/03/10 04:00:57;;;;;;;18.73;9.90;;;;;;;;;;5032765;28;20182;-74
2022/03/10 04:03:22;;;;;;;16.13;9.47;;;;;;;;;;5050705;28;20209;-74
2022/03/10 04:05:47;;;;;;;17.50;9.43;;;;;;;;;;5050580;28;20192;-74
2022/03/10 04:08:13;;;;;;;16.47;10.03;;;;;;;;;;5039327;28;20512;-75
2022/03/10 04:10:38;;;;;;;11.93;8.13;;;;;;;;;;5058221;28;20252;-75
2022/03/10 04:13:04;;;;;;;15.87;9.33;;;;;;;;;;5047060;28;20182;-74
2022/03/10 04:15:30;;;;;;;19.07;9.37;;;;;;;;;;5049337;28;20170;-74
2022/03/10 04:17:56;;;;;;;15.53;8.33;;;;;;;;;;5036316;28;20362;-74
2022/03/10 04:20:21;;;;;;;18.40;9.50;;;;;;;;;;5057534;28;20574;-74
2022/03/10 04:22:46;;;;;;;13.87;9.10;;;;;;;;;;5050354;28;20201;-74
2022/03/10 04:25:11;;;;;;;19.77;11.10;;;;;;;;;;5032337;28;20185;-74
2022/03/10 04:27:37;;;;;;;16.27;9.53;;;;;;;;;;5031949;28;20182;-75
2022/03/10 04:30:03;;;;;;;18.50;9.57;;;;;;;;;;5032100;28;20269;-74
2022/03/10 04:32:28;;;;;;;16.80;9.60;;;;;;;;;;5052487;28;20192;-74
2022/03/10 04:34:53;;;;;;;15.70;9.30;;;;;;;;;;5031501;28;20193;-74
2022/03/10 04:37:18;;;;;;;18.80;9.03;;;;;;;;;;5031080;28;20220;-74
2022/03/10 04:39:43;;;;;;;18.03;9.77;;;;;;;;;;5031915;28;20178;-75
2022/03/10 04:42:09;;;;;;;18.33;10.17;;;;;;;;;;5050038;28;20225;-75
2022/03/10 04:44:34;;;;;;;21.27;10.33;;;;;;;;;;5033014;28;20226;-75
2022/03/10 04:46:59;;;;;;;20.07;10.03;;;;;;;;;;5050192;28;21005;-74
2022/03/10 04:49:27;;;;;;;18.67;10.60;;;;;;;;;;5031635;28;20182;-74
2022/03/10 04:51:52;;;;;;;20.30;10.90;;;;;;;;;;5043313;28;20182;-75
2022/03/10 04:54:18;;;;;;;20.30;10.23;;;;;;;;;;5032058;28;21625;-74
2022/03/10 04:56:43;;;;;;;16.03;9.07;;;;;;;;;;5048105;28;20189;-74
2022/03/10 04:59:08;;;;;;;17.70;10.30;;;;;;;;;;5043889;28;20265;-75
2022/03/10 05:01:33;;;;;;;21.37;10.80;;;;;;;;;;5044602;28;20231;-74
2022/03/10 05:03:58;;;;;;;17.57;9.63;;;;;;;;;;5032341;28;20215;-74
2022/03/10 05:06:23;;;;;;;19.47;10.30;;;;;;;;;;5029434;28;20208;-75
2022/03/10 05:08:49;;;;;;;21.57;10.53;;;;;;;;;;5029519;28;20178;-74
2022/03/10 05:11:14;;;;;;;18.23;9.80;;;;;;;;;;5038467;28;20233;-75
2022/03/10 05:13:39;;;;;;;17.77;11.13;;;;;;;;;;5029812;28;20182;-75
2022/03/10 05:16:05;;;;;;;19.00;10.63;;;;;;;;;;5032951;28;20193;-74
2022/03/10 05:18:30;;;;;;;14.20;8.07;;;;;;;;;;5035444;28;20182;-75
2022/03/10 05:20:55;;;;;;;19.27;9.73;;;;;;;;;;5050029;28;20182;-75
2022/03/10 05:23:20;;;;;;;17.27;9.57;;;;;;;;;;5048104;28;20582;-75
2022/03/10 05:25:46;;;;;;;18.00;8.70;;;;;;;;;;5029006;28;20182;-75
2022/03/10 05:28:13;;;;;;;16.77;9.57;;;;;;;;;;5031602;28;20261;-75
2022/03/10 05:30:39;;;;;;;17.00;9.27;;;;;;;;;;5031468;28;20185;-75
2022/03/10 05:33:04;;;;;;;15.53;9.00;;;;;;;;;;5029359;28;20170;-75
2022/03/10 05:35:29;;;;;;;16.00;9.93;;;;;;;;;;5030288;28;20174;-75
2022/03/10 05:37:55;;;;;;;16.23;8.57;;;;;;;;;;5027839;28;20186;-75
2022/03/10 05:40:21;;;;;;;15.37;9.13;;;;;;;;;;5045881;28;20185;-75
2022/03/10 05:42:46;;;;;;;14.07;8.83;;;;;;;;;;5031311;28;20236;-75
2022/03/10 05:45:12;;;;;;;15.43;9.53;;;;;;;;;;5047874;28;20468;-75
2022/03/10 05:47:44;;;;;;;15.00;9.53;;;;;;;;;;5043859;28;20178;-75
2022/03/10 05:50:09;;;;;;;15.87;9.17;;;;;;;;;;5030379;28;20249;-75
2022/03/10 05:52:35;;;;;;;14.30;8.53;;;;;;;;;;5029927;28;20264;-75
2022/03/10 05:55:00;;;;;;;14.03;9.00;;;;;;;;;;5046516;28;20209;-75
2022/03/10 05:57:25;;;;;;;14.67;8.77;;;;;;;;;;5032028;28;20261;-75
2022/03/10 05:59:51;;;;;;;13.97;8.37;;;;;;;;;;5029457;28;20286;-76
2022/03/10 06:02:16;;;;;;;14.97;9.13;;;;;;;;;;5030216;28;20180;-75
2022/03/10 06:04:42;;;;;;;14.87;9.07;;;;;;;;;;5047946;28;20323;-75
2022/03/10 06:07:07;;;;;;;12.37;7.97;;;;;;;;;;5049993;28;20174;-75
2022/03/10 06:09:33;;;;;;;13.37;8.40;;;;;;;;;;5047845;28;20230;-74
2022/03/10 06:11:58;;;;;;;14.87;9.17;;;;;;;;;;5018786;28;20179;-75
2022/03/10 06:14:24;;;;;;;19.07;12.53;;;;;;;;;;5033523;28;20179;-75
2022/03/10 06:16:49;;;;;;;19.33;12.37;;;;;;;;;;5012546;28;20240;-75
2022/03/10 06:19:15;;;;;;;16.73;10.13;;;;;;;;;;5009468;28;20213;-75
2022/03/10 06:21:41;;;;;;;14.33;8.13;;;;;;;;;;5017513;28;20179;-75
2022/03/10 06:24:07;;;;;;;12.77;8.30;;;;;;;;;;5028636;28;20206;-75
2022/03/10 06:26:32;;;;;;;14.77;8.10;;;;;;;;;;5035349;28;20202;-75
2022/03/10 06:28:57;;;;;;;24.77;8.03;;;;;;;;;;5015150;28;20178;-75
2022/03/10 06:31:24;;;;;;;13.17;8.10;;;;;;;;;;5013860;28;20200;-75
2022/03/10 06:33:49;;;;;;;13.30;8.13;;;;;;;;;;5030680;28;20320;-75
2022/03/10 06:36:15;;;;;;;12.80;7.07;;;;;;;;;;5022161;28;20245;-76
2022/03/10 06:38:40;;;;;;;11.37;7.00;;;;;;;;;;5014350;28;20181;-76
2022/03/10 06:41:05;;;;;;;13.27;7.40;;;;;;;;;;5013602;28;20194;-75
2022/03/10 06:43:30;;;;;;;11.77;7.23;;;;;;;;;;5033473;28;20312;-75
2022/03/10 06:45:55;;;;;;;10.10;6.27;;;;;;;;;;5022215;28;20269;-75
2022/03/10 06:48:21;;;;;;;12.10;6.53;;;;;;;;;;5033362;28;20175;-75
2022/03/10 06:50:46;;;;;;;9.50;6.13;;;;;;;;;;5014480;28;20193;-76
2022/03/10 06:53:12;;;;;;;11.93;6.53;;;;;;;;;;5030976;28;20205;-75
2022/03/10 06:55:40;;;;;;;11.13;6.30;;;;;;;;;;5014529;28;20183;-75
2022/03/10 06:58:05;;;;;;;8.53;6.53;;;;;;;;;;5028324;28;20175;-75
2022/03/10 07:00:31;;;;;;;9.93;6.03;;;;;;;;;;5017764;28;20209;-75
2022/03/10 07:02:56;;;;;;;10.93;5.83;;;;;;;;;;5036307;28;20252;-75
2022/03/10 07:05:21;;;;;;;9.80;5.97;;;;;;;;;;5038448;28;20201;-75
2022/03/10 07:07:46;;;;;;;11.20;6.47;;;;;;;;;;5025306;28;20175;-76
2022/03/10 07:10:12;;;;;;;9.37;5.40;;;;;;;;;;5021174;28;20276;-76
2022/03/10 07:12:39;;;;;;;11.37;5.63;;;;;;;;;;5034251;28;20170;-75
2022/03/10 07:15:05;;;;;;;8.60;5.87;;;;;;;;;;5033827;28;20178;-76
2022/03/10 07:17:30;;;;;;;7.40;5.53;;;;;;;;;;5050157;28;20186;-75
2022/03/10 07:19:55;;;;;;;11.93;6.90;;;;;;;;;;5054831;28;20181;-75
2022/03/10 07:22:21;;;;;;;11.07;6.40;;;;;;;;;;5050619;28;20166;-75
2022/03/10 07:24:46;;;;;;;10.10;6.43;;;;;;;;;;5032002;28;20233;-75
2022/03/10 07:27:11;;;;;;;9.23;6.63;;;;;;;;;;5033307;28;20162;-75
2022/03/10 07:29:37;;;;;;;10.73;6.33;;;;;;;;;;5051117;28;20178;-75
2022/03/10 07:32:02;;;;;;;11.00;6.07;;;;;;;;;;5027255;28;20177;-75
2022/03/10 07:34:27;;;;;;;9.87;6.47;;;;;;;;;;5031980;28;20181;-75
2022/03/10 07:36:53;;;;;;;8.33;5.83;;;;;;;;;;5051078;28;20193;-75
2022/03/10 07:39:18;;;;;;;8.33;5.60;;;;;;;;;;5047991;28;20276;-75
2022/03/10 07:41:43;;;;;;;10.13;5.47;;;;;;;;;;5049786;28;20264;-75
2022/03/10 07:44:09;;;;;;;7.70;4.93;;;;;;;;;;5051541;28;20208;-75
2022/03/10 07:46:34;;;;;;;6.73;5.20;;;;;;;;;;5048667;28;20305;-75
2022/03/10 07:48:59;;;;;;;9.97;5.27;;;;;;;;;;5029754;28;20179;-75
2022/03/10 07:51:25;;;;;;;9.37;5.80;;;;;;;;;;5050739;28;20175;-75
2022/03/10 07:53:50;;;;;;;5.50;4.40;;;;;;;;;;5031631;28;20174;-75
2022/03/10 07:56:15;;;;;;;8.40;5.40;;;;;;;;;;5032816;28;20194;-75
2022/03/10 07:58:41;;;;;;;7.20;4.50;;;;;;;;;;5049573;28;20178;-75
2022/03/10 08:01:06;;;;;;;6.30;4.77;;;;;;;;;;5050566;28;20193;-75
2022/03/10 08:03:33;;;;;;;9.23;4.93;;;;;;;;;;5032755;28;20256;-75
2022/03/10 08:05:59;;;;;;;6.13;4.20;;;;;;;;;;5036226;28;20223;-75
2022/03/10 08:08:24;;;;;;;8.50;4.57;;;;;;;;;;5049179;28;20174;-75
2022/03/10 08:10:49;;;;;;;6.90;5.30;;;;;;;;;;5026302;28;20231;-75
2022/03/10 08:13:15;;;;;;;7.20;4.70;;;;;;;;;;5027000;28;20206;-75
2022/03/10 08:15:42;;;;;;;8.23;5.50;;;;;;;;;;5033226;28;20182;-75
2022/03/10 08:18:07;;;;;;;14.53;8.77;;;;;;;;;;5031436;28;20174;-75
2022/03/10 08:20:33;;;;;;;10.47;6.57;;;;;;;;;;5054563;28;20371;-75
2022/03/10 08:22:58;;;;;;;10.83;6.93;;;;;;;;;;5048760;28;20214;-75
2022/03/10 08:25:23;;;;;;;14.33;8.97;;;;;;;;;;5047027;28;20177;-75
2022/03/10 08:27:48;;;;;;;9.13;5.80;;;;;;;;;;5037990;28;20188;-75
2022/03/10 08:30:14;;;;;;;8.90;7.20;;;;;;;;;;5036505;28;20197;-75
2022/03/10 08:32:40;;;;;;;6.80;5.53;;;;;;;;;;5029321;28;20213;-75
2022/03/10 08:35:06;;;;;;;5.53;3.97;;;;;;;;;;5046698;28;20239;-75
2022/03/10 08:37:31;;;;;;;6.87;3.80;;;;;;;;;;5034349;28;20183;-75
2022/03/10 08:39:57;;;;;;;4.50;3.50;;;;;;;;;;5028038;28;20208;-75
2022/03/10 08:42:22;;;;;;;6.00;4.07;;;;;;;;;;5034519;28;20182;-74
2022/03/10 08:44:47;;;;;;;5.63;3.67;;;;;;;;;;5038913;28;20305;-75
2022/03/10 08:47:13;;;;;;;5.10;3.60;;;;;;;;;;5024540;28;20552;-75
2022/03/10 08:49:38;;;;;;;4.97;3.93;;;;;;;;;;5028764;28;20387;-75
2022/03/10 08:52:03;;;;;;;5.13;3.67;;;;;;;;;;5031742;28;20182;-75
2022/03/10 08:54:28;;;;;;;5.57;4.23;;;;;;;;;;5030318;28;20186;-75
2022/03/10 08:56:54;;;;;;;8.17;4.83;;;;;;;;;;5042366;28;20175;-75
2022/03/10 08:59:19;;;;;;;5.43;3.83;;;;;;;;;;5031786;28;20193;-74
2022/03/10 09:01:46;;;;;;;5.87;4.40;;;;;;;;;;5037111;28;20186;-75
2022/03/10 09:04:11;;;;;;;4.63;3.93;;;;;;;;;;5049985;28;20338;-75
2022/03/10 09:06:36;;;;;;;6.13;4.40;;;;;;;;;;5045969;28;20260;-74
2022/03/10 09:09:03;;;;;;;7.47;4.50;;;;;;;;;;5042345;28;20174;-74
2022/03/10 09:11:28;;;;;;;5.27;4.23;;;;;;;;;;5031947;28;20232;-75
2022/03/10 09:13:53;;;;;;;6.73;4.27;;;;;;;;;;5037390;28;20177;-74
2022/03/10 09:16:19;;;;;;;7.27;4.20;;;;;;;;;;5033193;28;20237;-74
2022/03/10 09:18:48;;;;;;;6.50;4.80;;;;;;;;;;5052364;28;20187;-74
2022/03/10 09:21:14;;;;;;;6.67;3.90;;;;;;;;;;5032591;28;20194;-75
2022/03/10 09:23:39;;;;;;;5.27;4.07;;;;;;;;;;5030376;28;20295;-74
2022/03/10 09:26:04;;;;;;;7.17;5.00;;;;;;;;;;5017801;28;20186;-74
2022/03/10 09:28:30;;;;;;;6.30;4.57;;;;;;;;;;5050182;28;20170;-74
2022/03/10 09:30:55;;;;;;;6.57;4.83;;;;;;;;;;5046564;28;20472;-74
2022/03/10 09:33:20;;;;;;;7.27;5.30;;;;;;;;;;5032994;28;20179;-74
2022/03/10 09:35:45;;;;;;;5.33;4.20;;;;;;;;;;5031372;28;20192;-74
2022/03/10 09:38:11;;;;;;;6.50;5.20;;;;;;;;;;5031290;28;20187;-75
2022/03/10 09:40:36;;;;;;;9.30;5.67;;;;;;;;;;5037069;28;20193;-75
2022/03/10 09:43:01;;;;;;;7.20;5.07;;;;;;;;;;5052021;28;20203;-74
2022/03/10 09:45:28;;;;;;;8.87;5.60;;;;;;;;;;5028777;28;20188;-74
2022/03/10 09:47:53;;;;;;;5.03;3.27;;;;;;;;;;5038867;28;20178;-74
2022/03/10 09:50:19;;;;;;;6.13;4.53;;;;;;;;;;5050126;28;20489;-74
2022/03/10 09:52:45;;;;;;;6.37;4.90;;;;;;;;;;5056978;28;20187;-74
2022/03/10 09:55:11;;;;;;;7.33;5.33;;;;;;;;;;5049342;28;20196;-75
2022/03/10 09:57:37;;;;;;;12.30;4.90;;;;;;;;;;5046151;28;20184;-74
2022/03/10 10:00:03;;;;;;;7.83;5.23;;;;;;;;;;5030811;28;20481;-74
2022/03/10 10:02:29;;;;;;;7.63;4.67;;;;;;;;;;5030263;28;20263;-74
2022/03/10 10:04:56;;;;;;;7.43;5.20;;;;;;;;;;5051397;28;20217;-74
2022/03/10 10:07:22;;;;;;;6.33;5.13;;;;;;;;;;5049894;28;20229;-74
2022/03/10 10:09:52;;;;;;;8.00;4.77;;;;;;;;;;5030587;28;20233;-75
2022/03/10 10:12:17;;;;;;;7.47;4.73;;;;;;;;;;5037304;28;20337;-74
2022/03/10 10:14:43;;;;;;;7.60;4.37;;;;;;;;;;5029912;28;20195;-74
2022/03/10 10:17:09;;;;;;;6.27;4.60;;;;;;;;;;5048169;28;20193;-74
2022/03/10 10:19:35;;;;;;;6.37;4.57;;;;;;;;;;5029147;28;20193;-74
2022/03/10 10:22:13;;;;;;;6.90;5.53;;;;;;;;;;5031712;28;20188;-75
2022/03/10 10:24:39;;;;;;;7.67;5.30;;;;;;;;;;5028771;28;20208;-74
2022/03/10 10:27:15;;;;;;;7.00;4.73;;;;;;;;;;5031558;28;20182;-74
2022/03/10 10:29:45;;;;;;;7.13;4.77;;;;;;;;;;5051105;28;20180;-74
2022/03/10 10:32:10;;;;;;;6.57;4.50;;;;;;;;;;5054403;28;20254;-75
2022/03/10 10:34:35;;;;;;;8.50;4.93;;;;;;;;;;5050630;28;20253;-74
2022/03/10 10:37:00;;;;;;;6.00;4.37;;;;;;;;;;5031676;28;20222;-74
2022/03/10 10:39:25;;;;;;;6.30;4.70;;;;;;;;;;5043273;28;20204;-74
2022/03/10 10:41:51;;;;;;;5.70;4.60;;;;;;;;;;5031366;28;20326;-74
2022/03/10 10:44:17;;;;;;;8.57;6.05;;;;;;;;;;5029353;28;20216;-74
2022/03/10 10:46:43;;;;;;;6.60;5.27;;;;;;;;;;5045984;28;20185;-75
2022/03/10 10:49:09;;;;;;;5.03;4.50;;;;;;;;;;5029500;28;20191;-74
2022/03/10 10:51:34;;;;;;;3.70;3.40;;;;;;;;;;5046566;28;20179;-74
2022/03/10 10:54:00;;;;;;;4.60;3.38;;;;;;;;;;5048511;28;20193;-75
2022/03/10 10:56:26;;;;;;;3.97;3.30;;;;;;;;;;5037358;28;20186;-75
2022/03/10 10:58:55;;;;;;;4.77;4.13;;;;;;;;;;5051616;28;20186;-75
2022/03/10 11:01:30;;;;;;;6.80;5.10;;;;;;;;;;5052002;28;20200;-75
2022/03/10 11:03:55;;;;;;;3.07;2.77;;;;;;;;;;5039593;28;20214;-75
2022/03/10 11:06:21;;;;;;;3.40;3.10;;;;;;;;;;5037732;28;20182;-75
2022/03/10 11:08:46;;;;;;;4.03;3.33;;;;;;;;;;5057013;28;20230;-75
2022/03/10 11:11:12;;;;;;;3.87;3.07;;;;;;;;;;5051017;28;20221;-74
2022/03/10 11:13:37;;;;;;;4.00;3.60;;;;;;;;;;5048217;28;20194;-74
2022/03/10 11:16:06;;;;;;;4.27;3.20;;;;;;;;;;5052838;28;20182;-74
2022/03/10 11:18:32;;;;;;;5.10;3.37;;;;;;;;;;5048515;28;20410;-75
2022/03/10 11:21:02;;;;;;;3.97;3.23;;;;;;;;;;5038686;28;20174;-74
2022/03/10 11:23:56;;;;;;;5.17;3.23;;;;;;;;;;5033501;28;20202;-74
2022/03/10 11:26:29;;;;;;;3.57;2.83;;;;;;;;;;5028641;28;20182;-75
2022/03/10 11:28:55;;;;;;;3.73;3.13;;;;;;;;;;5033207;28;20273;-74
2022/03/10 11:31:21;;;;;;;3.07;2.57;;;;;;;;;;5034701;28;20178;-75
2022/03/10 11:33:46;;;;;;;4.97;4.47;;;;;;;;;;5043913;28;20286;-75
2022/03/10 11:36:22;;;;;;;5.37;3.50;;;;;;;;;;5031083;28;20185;-74
2022/03/10 11:38:52;;;;;;;5.80;3.47;;;;;;;;;;5030724;28;20196;-74
2022/03/10 11:41:18;;;;;;;4.63;3.53;;;;;;;;;;5038227;28;20258;-74
2022/03/10 11:43:54;;;;;;;4.20;3.03;;;;;;;;;;5025315;28;20220;-74
2022/03/10 11:46:23;;;;;;;5.40;3.50;;;;;;;;;;5046057;28;20249;-75
2022/03/10 11:49:07;;;;;;;3.93;2.17;;;;;;;;;;5033087;28;20186;-74
2022/03/10 11:51:48;;;;;;;5.03;3.10;;;;;;;;;;5033983;28;20174;-74
2022/03/10 11:54:20;;;;;;;4.23;3.30;;;;;;;;;;5046811;28;20228;-74
2022/03/10 11:56:50;;;;;;;3.77;3.03;;;;;;;;;;5046793;28;20209;-74
2022/03/10 11:59:24;;;;;;;4.97;3.23;;;;;;;;;;5051094;28;20180;-75
2022/03/10 12:01:49;;;;;;;3.57;3.07;;;;;;;;;;5043520;28;20257;-74
2022/03/10 12:04:18;;;;;;;3.87;2.90;;;;;;;;;;5034002;28;20350;-74
2022/03/10 12:06:59;;;;;;;3.93;3.27;;;;;;;;;;5049145;28;20443;-74
2022/03/10 12:09:29;;;;;;;4.90;3.10;;;;;;;;;;5029081;28;20239;-75
2022/03/10 12:11:54;;;;;;;4.03;3.20;;;;;;;;;;5053113;28;20298;-74
2022/03/10 12:14:24;;;;;;;5.63;3.70;;;;;;;;;;5035014;28;20210;-74
2022/03/10 12:16:49;;;;;;;3.83;2.67;;;;;;;;;;5045816;28;20175;-74
2022/03/10 12:19:14;;;;;;;4.30;3.20;;;;;;;;;;5035761;28;20186;-74
2022/03/10 12:21:40;;;;;;;5.17;3.40;;;;;;;;;;5048569;28;20188;-75
2022/03/10 12:24:05;;;;;;;4.53;3.33;;;;;;;;;;5047597;28;20213;-74
2022/03/10 12:26:31;;;;;;;6.03;4.07;;;;;;;;;;5051796;28;20168;-74
2022/03/10 12:28:58;;;;;;;5.07;3.30;;;;;;;;;;5038686;28;20205;-75
2022/03/10 12:31:24;;;;;;;3.93;3.20;;;;;;;;;;5039356;28;20225;-75
2022/03/10 12:33:51;;;;;;;4.83;3.80;;;;;;;;;;5051029;28;20196;-75
2022/03/10 12:36:26;;;;;;;8.83;3.40;;;;;;;;;;5048602;28;20182;-75
2022/03/10 12:38:52;;;;;;;3.40;3.07;;;;;;;;;;5042976;28;20179;-75
2022/03/10 12:41:20;;;;;;;4.03;3.07;;;;;;;;;;5030954;28;20242;-75
2022/03/10 12:43:55;;;;;;;5.07;3.13;;;;;;;;;;5031361;28;20205;-75
2022/03/10 12:46:21;;;;;;;4.07;3.43;;;;;;;;;;5047515;28;20234;-75
2022/03/10 12:48:59;;;;;;;4.33;3.30;;;;;;;;;;5049864;28;20180;-75
2022/03/10 12:51:28;;;;;;;4.03;3.40;;;;;;;;;;5048663;28;20181;-74
2022/03/10 12:53:54;;;;;;;4.67;3.40;;;;;;;;;;5052180;28;20219;-75
2022/03/10 12:56:20;;;;;;;4.80;3.87;;;;;;;;;;5029369;28;20269;-74
2022/03/10 12:58:46;;;;;;;4.03;3.37;;;;;;;;;;5045313;28;20203;-74
2022/03/10 13:01:12;;;;;;;7.47;5.77;;;;;;;;;;5029321;28;20199;-75
2022/03/10 13:03:44;;;;;;;3.93;3.07;;;;;;;;;;5044061;28;20206;-74
2022/03/10 13:06:11;;;;;;;4.20;3.07;;;;;;;;;;5056648;28;20253;-74
2022/03/10 13:08:40;;;;;;;4.43;3.47;;;;;;;;;;5048621;28;20188;-74
2022/03/10 13:11:06;;;;;;;4.07;3.60;;;;;;;;;;5031261;28;21714;-74
2022/03/10 13:13:31;;;;;;;5.37;3.27;;;;;;;;;;5030921;28;20198;-73
2022/03/10 13:16:00;;;;;;;6.40;3.47;;;;;;;;;;5039792;28;20190;-73
2022/03/10 13:18:26;;;;;;;3.90;3.50;;;;;;;;;;5048648;28;20204;-73
2022/03/10 13:20:51;;;;;;;3.80;3.13;;;;;;;;;;5047576;28;20198;-73
2022/03/10 13:23:23;;;;;;;4.33;3.30;;;;;;;;;;5048777;28;20199;-73
2022/03/10 13:25:49;;;;;;;5.77;3.60;;;;;;;;;;5046177;28;20167;-73
2022/03/10 13:28:15;;;;;;;5.03;3.00;;;;;;;;;;5049541;28;20205;-73
2022/03/10 13:30:44;;;;;;;3.33;2.83;;;;;;;;;;5031948;28;20533;-73
2022/03/10 13:33:10;;;;;;;4.70;2.93;;;;;;;;;;5047556;28;20183;-73
2022/03/10 13:35:40;;;;;;;4.33;3.20;;;;;;;;;;5042771;28;20182;-73
2022/03/10 13:38:06;;;;;;;4.20;3.03;;;;;;;;;;5044313;28;20179;-73
2022/03/10 13:40:32;;;;;;;4.30;3.47;;;;;;;;;;5046166;28;20297;-73
2022/03/10 13:42:59;;;;;;;3.83;3.10;;;;;;;;;;5032172;28;20190;-73
2022/03/10 13:45:25;;;;;;;6.70;3.40;;;;;;;;;;5030699;28;20179;-73
2022/03/10 13:47:50;;;;;;;3.60;3.00;;;;;;;;;;5033837;28;20236;-72
2022/03/10 13:50:20;;;;;;;2.73;2.40;;;;;;;;;;5029104;28;20193;-73
2022/03/10 13:52:45;;;;;;;3.43;2.80;;;;;;;;;;5024528;28;20182;-73
2022/03/10 13:55:11;;;;;;;5.10;3.10;;;;;;;;;;5045558;28;20187;-73
2022/03/10 13:57:37;;;;;;;4.53;2.90;;;;;;;;;;5052217;28;20278;-73
2022/03/10 14:00:05;;;;;;;3.63;3.00;;;;;;;;;;5027731;28;20183;-73
2022/03/10 14:02:31;;;;;;;5.33;3.07;;;;;;;;;;5029740;28;20175;-73
2022/03/10 14:04:56;;;;;;;3.43;3.07;;;;;;;;;;5045510;28;20206;-73
2022/03/10 14:07:21;;;;;;;6.07;3.17;;;;;;;;;;5040863;28;20178;-73
2022/03/10 14:09:48;;;;;;;6.40;4.60;;;;;;;;;;5029986;28;20368;-73
2022/03/10 14:12:17;;;;;;;3.00;2.60;;;;;;;;;;5046517;28;20232;-73
2022/03/10 14:14:43;;;;;;;3.03;2.70;;;;;;;;;;5048959;28;20231;-73
2022/03/10 14:17:09;;;;;;;6.10;4.20;;;;;;;;;;5030654;28;20190;-73
2022/03/10 14:19:35;;;;;;;4.30;3.53;;;;;;;;;;5041828;28;20172;-73
2022/03/10 14:22:01;;;;;;;3.40;3.10;;;;;;;;;;5046284;28;20202;-73
2022/03/10 14:24:27;;;;;;;4.50;2.90;;;;;;;;;;5054841;28;20204;-73
2022/03/10 14:26:53;;;;;;;3.23;2.90;;;;;;;;;;5050384;28;20181;-73
2022/03/10 14:29:20;;;;;;;6.40;5.17;;;;;;;;;;5044660;28;20297;-73
2022/03/10 14:31:45;;;;;;;3.93;2.80;;;;;;;;;;5050777;28;20175;-73